sensor_id;sensor_type;location;lat;lon;timestamp;P1;durP1;ratioP1;P2;durP2;ratioP2
8094;SDS011;4090;49.270;8.696;2024-03-17T00:00:44;7.80;;;5.20;;
8094;SDS011;4090;49.270;8.696;2024-03-17T00:03:27;8.80;;;5.45;;
8094;SDS011;4090;49.270;8.696;2024-03-17T00:06:08;7.78;;;5.47;;
8094;SDS011;4090;49.270;8.696;2024-03-17T00:08:50;7.40;;;4.68;;
8094;SDS011;4090;49.270;8.696;2024-03-17T00:11:31;9.50;;;5.25;;
8094;SDS011;4090;49.270;8.696;2024-03-17T00:14:13;8.45;;;4.80;;
8094;SDS011;4090;49.270;8.696;2024-03-17T00:16:54;9.18;;;4.95;;
8094;SDS011;4090;49.270;8.696;2024-03-17T00:19:37;7.65;;;4.93;;
8094;SDS011;4090;49.270;8.696;2024-03-17T00:22:19;7.43;;;4.50;;
8094;SDS011;4090;49.270;8.696;2024-03-17T00:25:00;8.15;;;5.13;;
8094;SDS011;4090;49.270;8.696;2024-03-17T00:27:42;8.45;;;4.43;;
8094;SDS011;4090;49.270;8.696;2024-03-17T00:30:25;7.28;;;4.90;;
8094;SDS011;4090;49.270;8.696;2024-03-17T00:33:07;7.65;;;4.85;;
8094;SDS011;4090;49.270;8.696;2024-03-17T00:35:50;6.80;;;4.55;;
8094;SDS011;4090;49.270;8.696;2024-03-17T00:38:32;8.27;;;4.10;;
8094;SDS011;4090;49.270;8.696;2024-03-17T00:41:13;6.72;;;4.80;;
8094;SDS011;4090;49.270;8.696;2024-03-17T00:44:00;5.75;;;4.35;;
8094;SDS011;4090;49.270;8.696;2024-03-17T00:46:43;6.68;;;4.20;;
8094;SDS011;4090;49.270;8.696;2024-03-17T00:49:26;8.32;;;4.32;;
8094;SDS011;4090;49.270;8.696;2024-03-17T00:52:08;6.28;;;4.22;;
8094;SDS011;4090;49.270;8.696;2024-03-17T00:54:50;8.32;;;3.78;;
8094;SDS011;4090;49.270;8.696;2024-03-17T00:57:31;4.82;;;3.72;;
8094;SDS011;4090;49.270;8.696;2024-03-17T01:00:13;5.72;;;4.10;;
8094;SDS011;4090;49.270;8.696;2024-03-17T01:02:55;6.35;;;3.95;;
8094;SDS011;4090;49.270;8.696;2024-03-17T01:05:37;6.38;;;3.88;;
8094;SDS011;4090;49.270;8.696;2024-03-17T01:08:23;5.80;;;4.30;;
8094;SDS011;4090;49.270;8.696;2024-03-17T01:11:05;7.07;;;3.90;;
8094;SDS011;4090;49.270;8.696;2024-03-17T01:13:48;9.57;;;4.53;;
8094;SDS011;4090;49.270;8.696;2024-03-17T01:16:30;8.27;;;4.32;;
8094;SDS011;4090;49.270;8.696;2024-03-17T01:19:11;5.47;;;4.05;;
8094;SDS011;4090;49.270;8.696;2024-03-17T01:21:53;9.07;;;4.03;;
8094;SDS011;4090;49.270;8.696;2024-03-17T01:24:35;5.40;;;4.05;;
8094;SDS011;4090;49.270;8.696;2024-03-17T01:27:19;5.82;;;4.05;;
8094;SDS011;4090;49.270;8.696;2024-03-17T01:30:01;6.88;;;4.10;;
8094;SDS011;4090;49.270;8.696;2024-03-17T01:32:43;5.70;;;3.67;;
8094;SDS011;4090;49.270;8.696;2024-03-17T01:35:24;5.07;;;3.83;;
8094;SDS011;4090;49.270;8.696;2024-03-17T01:38:06;4.93;;;3.90;;
8094;SDS011;4090;49.270;8.696;2024-03-17T01:40:48;7.22;;;4.00;;
8094;SDS011;4090;49.270;8.696;2024-03-17T01:43:30;5.63;;;3.83;;
8094;SDS011;4090;49.270;8.696;2024-03-17T01:46:12;4.30;;;3.67;;
8094;SDS011;4090;49.270;8.696;2024-03-17T01:48:55;5.65;;;3.97;;
8094;SDS011;4090;49.270;8.696;2024-03-17T01:51:38;8.95;;;4.50;;
8094;SDS011;4090;49.270;8.696;2024-03-17T01:54:19;6.18;;;4.07;;
8094;SDS011;4090;49.270;8.696;2024-03-17T01:57:03;5.07;;;3.53;;
8094;SDS011;4090;49.270;8.696;2024-03-17T01:59:44;7.00;;;4.05;;
8094;SDS011;4090;49.270;8.696;2024-03-17T02:02:27;4.97;;;3.50;;
8094;SDS011;4090;49.270;8.696;2024-03-17T02:05:08;5.82;;;3.95;;
8094;SDS011;4090;49.270;8.696;2024-03-17T02:07:50;5.70;;;3.97;;
8094;SDS011;4090;49.270;8.696;2024-03-17T02:10:32;6.13;;;3.83;;
8094;SDS011;4090;49.270;8.696;2024-03-17T02:13:14;6.93;;;3.75;;
8094;SDS011;4090;49.270;8.696;2024-03-17T02:15:56;4.78;;;3.30;;
8094;SDS011;4090;49.270;8.696;2024-03-17T02:18:37;5.10;;;3.35;;
8094;SDS011;4090;49.270;8.696;2024-03-17T02:21:19;6.18;;;3.80;;
8094;SDS011;4090;49.270;8.696;2024-03-17T02:24:04;8.13;;;3.80;;
8094;SDS011;4090;49.270;8.696;2024-03-17T02:26:46;5.90;;;3.65;;
8094;SDS011;4090;49.270;8.696;2024-03-17T02:29:27;6.85;;;3.47;;
8094;SDS011;4090;49.270;8.696;2024-03-17T02:32:09;6.82;;;4.18;;
8094;SDS011;4090;49.270;8.696;2024-03-17T02:34:51;5.63;;;3.75;;
8094;SDS011;4090;49.270;8.696;2024-03-17T02:37:33;6.97;;;4.32;;
8094;SDS011;4090;49.270;8.696;2024-03-17T02:40:15;6.15;;;4.07;;
8094;SDS011;4090;49.270;8.696;2024-03-17T02:43:01;6.78;;;4.03;;
8094;SDS011;4090;49.270;8.696;2024-03-17T02:45:42;5.25;;;3.80;;
8094;SDS011;4090;49.270;8.696;2024-03-17T02:48:24;5.00;;;3.33;;
8094;SDS011;4090;49.270;8.696;2024-03-17T02:51:06;6.03;;;3.60;;
8094;SDS011;4090;49.270;8.696;2024-03-17T02:53:49;7.53;;;4.13;;
8094;SDS011;4090;49.270;8.696;2024-03-17T02:56:33;6.15;;;4.28;;
8094;SDS011;4090;49.270;8.696;2024-03-17T02:59:14;5.38;;;4.05;;
8094;SDS011;4090;49.270;8.696;2024-03-17T03:01:57;6.70;;;4.00;;
8094;SDS011;4090;49.270;8.696;2024-03-17T03:04:39;8.45;;;4.20;;
8094;SDS011;4090;49.270;8.696;2024-03-17T03:07:21;5.97;;;3.60;;
8094;SDS011;4090;49.270;8.696;2024-03-17T03:10:03;5.93;;;3.80;;
8094;SDS011;4090;49.270;8.696;2024-03-17T03:12:47;6.85;;;4.00;;
8094;SDS011;4090;49.270;8.696;2024-03-17T03:15:30;5.78;;;4.20;;
8094;SDS011;4090;49.270;8.696;2024-03-17T03:18:13;6.40;;;4.07;;
8094;SDS011;4090;49.270;8.696;2024-03-17T03:20:54;5.65;;;3.60;;
8094;SDS011;4090;49.270;8.696;2024-03-17T03:23:36;5.25;;;3.83;;
8094;SDS011;4090;49.270;8.696;2024-03-17T03:26:18;6.97;;;3.85;;
8094;SDS011;4090;49.270;8.696;2024-03-17T03:29:01;5.93;;;3.72;;
8094;SDS011;4090;49.270;8.696;2024-03-17T03:31:44;5.50;;;3.78;;
8094;SDS011;4090;49.270;8.696;2024-03-17T03:34:26;5.47;;;3.58;;
8094;SDS011;4090;49.270;8.696;2024-03-17T03:37:08;4.70;;;3.22;;
8094;SDS011;4090;49.270;8.696;2024-03-17T03:39:51;4.75;;;3.35;;
8094;SDS011;4090;49.270;8.696;2024-03-17T03:42:33;8.05;;;3.50;;
8094;SDS011;4090;49.270;8.696;2024-03-17T03:45:16;5.45;;;3.15;;
8094;SDS011;4090;49.270;8.696;2024-03-17T03:47:58;4.10;;;3.30;;
8094;SDS011;4090;49.270;8.696;2024-03-17T03:50:40;7.20;;;3.30;;
8094;SDS011;4090;49.270;8.696;2024-03-17T03:53:22;6.05;;;3.60;;
8094;SDS011;4090;49.270;8.696;2024-03-17T03:56:04;4.32;;;3.28;;
8094;SDS011;4090;49.270;8.696;2024-03-17T03:58:47;5.03;;;3.20;;
8094;SDS011;4090;49.270;8.696;2024-03-17T04:01:31;4.38;;;3.13;;
8094;SDS011;4090;49.270;8.696;2024-03-17T04:04:13;4.85;;;3.35;;
8094;SDS011;4090;49.270;8.696;2024-03-17T04:06:55;4.88;;;3.30;;
8094;SDS011;4090;49.270;8.696;2024-03-17T04:09:38;5.22;;;3.20;;
8094;SDS011;4090;49.270;8.696;2024-03-17T04:12:20;4.18;;;2.95;;
8094;SDS011;4090;49.270;8.696;2024-03-17T04:15:02;4.88;;;3.30;;
8094;SDS011;4090;49.270;8.696;2024-03-17T04:17:47;3.60;;;3.17;;
8094;SDS011;4090;49.270;8.696;2024-03-17T04:20:29;4.38;;;3.20;;
8094;SDS011;4090;49.270;8.696;2024-03-17T04:23:11;3.88;;;2.38;;
8094;SDS011;4090;49.270;8.696;2024-03-17T04:25:53;5.93;;;3.05;;
8094;SDS011;4090;49.270;8.696;2024-03-17T04:28:35;5.65;;;3.55;;
8094;SDS011;4090;49.270;8.696;2024-03-17T04:31:17;3.33;;;3.00;;
8094;SDS011;4090;49.270;8.696;2024-03-17T04:34:00;5.57;;;3.10;;
8094;SDS011;4090;49.270;8.696;2024-03-17T04:36:42;4.00;;;3.20;;
8094;SDS011;4090;49.270;8.696;2024-03-17T04:39:24;5.68;;;3.40;;
8094;SDS011;4090;49.270;8.696;2024-03-17T04:42:06;5.63;;;3.15;;
8094;SDS011;4090;49.270;8.696;2024-03-17T04:44:48;4.40;;;3.50;;
8094;SDS011;4090;49.270;8.696;2024-03-17T04:47:31;6.25;;;3.45;;
8094;SDS011;4090;49.270;8.696;2024-03-17T04:50:14;4.07;;;3.08;;
8094;SDS011;4090;49.270;8.696;2024-03-17T04:52:56;5.25;;;3.05;;
8094;SDS011;4090;49.270;8.696;2024-03-17T04:55:38;4.53;;;3.03;;
8094;SDS011;4090;49.270;8.696;2024-03-17T04:58:20;5.50;;;3.67;;
8094;SDS011;4090;49.270;8.696;2024-03-17T05:01:05;3.20;;;2.60;;
8094;SDS011;4090;49.270;8.696;2024-03-17T05:03:50;5.13;;;2.90;;
8094;SDS011;4090;49.270;8.696;2024-03-17T05:06:34;6.25;;;2.88;;
8094;SDS011;4090;49.270;8.696;2024-03-17T05:09:16;3.45;;;2.60;;
8094;SDS011;4090;49.270;8.696;2024-03-17T05:11:58;5.47;;;2.88;;
8094;SDS011;4090;49.270;8.696;2024-03-17T05:14:40;5.70;;;3.08;;
8094;SDS011;4090;49.270;8.696;2024-03-17T05:17:22;6.07;;;3.25;;
8094;SDS011;4090;49.270;8.696;2024-03-17T05:20:04;6.20;;;2.85;;
8094;SDS011;4090;49.270;8.696;2024-03-17T05:22:50;3.78;;;2.85;;
8094;SDS011;4090;49.270;8.696;2024-03-17T05:25:31;3.90;;;2.83;;
8094;SDS011;4090;49.270;8.696;2024-03-17T05:28:16;3.60;;;2.58;;
8094;SDS011;4090;49.270;8.696;2024-03-17T05:30:58;3.10;;;2.72;;
8094;SDS011;4090;49.270;8.696;2024-03-17T05:33:40;4.50;;;2.67;;
8094;SDS011;4090;49.270;8.696;2024-03-17T05:36:22;4.80;;;2.97;;
8094;SDS011;4090;49.270;8.696;2024-03-17T05:39:05;4.28;;;3.08;;
8094;SDS011;4090;49.270;8.696;2024-03-17T05:41:47;3.20;;;2.70;;
8094;SDS011;4090;49.270;8.696;2024-03-17T05:44:29;4.07;;;2.90;;
8094;SDS011;4090;49.270;8.696;2024-03-17T05:47:20;4.93;;;2.80;;
8094;SDS011;4090;49.270;8.696;2024-03-17T05:50:03;6.95;;;2.90;;
8094;SDS011;4090;49.270;8.696;2024-03-17T05:52:45;2.58;;;2.15;;
8094;SDS011;4090;49.270;8.696;2024-03-17T05:55:29;3.45;;;2.75;;
8094;SDS011;4090;49.270;8.696;2024-03-17T05:58:11;3.50;;;2.60;;
8094;SDS011;4090;49.270;8.696;2024-03-17T06:00:53;4.40;;;3.28;;
8094;SDS011;4090;49.270;8.696;2024-03-17T06:03:35;6.25;;;3.20;;
8094;SDS011;4090;49.270;8.696;2024-03-17T06:06:17;5.80;;;3.30;;
8094;SDS011;4090;49.270;8.696;2024-03-17T06:08:59;4.47;;;2.65;;
8094;SDS011;4090;49.270;8.696;2024-03-17T06:11:42;3.50;;;2.60;;
8094;SDS011;4090;49.270;8.696;2024-03-17T06:14:24;5.03;;;2.67;;
8094;SDS011;4090;49.270;8.696;2024-03-17T06:17:05;3.85;;;2.63;;
8094;SDS011;4090;49.270;8.696;2024-03-17T06:19:48;3.53;;;2.28;;
8094;SDS011;4090;49.270;8.696;2024-03-17T06:22:30;4.68;;;2.80;;
8094;SDS011;4090;49.270;8.696;2024-03-17T06:25:12;8.52;;;2.45;;
8094;SDS011;4090;49.270;8.696;2024-03-17T06:27:55;3.45;;;2.60;;
8094;SDS011;4090;49.270;8.696;2024-03-17T06:30:38;3.20;;;2.50;;
8094;SDS011;4090;49.270;8.696;2024-03-17T06:33:20;3.72;;;2.50;;
8094;SDS011;4090;49.270;8.696;2024-03-17T06:36:02;3.17;;;2.40;;
8094;SDS011;4090;49.270;8.696;2024-03-17T06:38:46;4.60;;;2.33;;
8094;SDS011;4090;49.270;8.696;2024-03-17T06:41:29;3.97;;;2.70;;
8094;SDS011;4090;49.270;8.696;2024-03-17T06:44:12;3.08;;;2.60;;
8094;SDS011;4090;49.270;8.696;2024-03-17T06:46:54;4.60;;;2.42;;
8094;SDS011;4090;49.270;8.696;2024-03-17T06:49:36;3.08;;;2.53;;
8094;SDS011;4090;49.270;8.696;2024-03-17T06:52:18;3.67;;;2.42;;
8094;SDS011;4090;49.270;8.696;2024-03-17T06:54:59;3.35;;;2.75;;
8094;SDS011;4090;49.270;8.696;2024-03-17T06:57:42;4.25;;;3.03;;
8094;SDS011;4090;49.270;8.696;2024-03-17T07:00:26;5.15;;;2.85;;
8094;SDS011;4090;49.270;8.696;2024-03-17T07:03:08;4.03;;;2.83;;
8094;SDS011;4090;49.270;8.696;2024-03-17T07:05:53;4.10;;;2.90;;
8094;SDS011;4090;49.270;8.696;2024-03-17T07:08:36;3.65;;;2.95;;
8094;SDS011;4090;49.270;8.696;2024-03-17T07:11:18;4.10;;;2.95;;
8094;SDS011;4090;49.270;8.696;2024-03-17T07:14:03;4.63;;;3.20;;
8094;SDS011;4090;49.270;8.696;2024-03-17T07:16:47;4.28;;;3.08;;
8094;SDS011;4090;49.270;8.696;2024-03-17T07:19:29;3.95;;;3.13;;
8094;SDS011;4090;49.270;8.696;2024-03-17T07:22:12;4.63;;;3.28;;
8094;SDS011;4090;49.270;8.696;2024-03-17T07:24:54;4.10;;;3.00;;
8094;SDS011;4090;49.270;8.696;2024-03-17T07:27:40;3.15;;;2.67;;
8094;SDS011;4090;49.270;8.696;2024-03-17T07:30:22;4.53;;;3.15;;
8094;SDS011;4090;49.270;8.696;2024-03-17T07:33:05;3.42;;;2.80;;
8094;SDS011;4090;49.270;8.696;2024-03-17T07:35:48;4.30;;;3.10;;
8094;SDS011;4090;49.270;8.696;2024-03-17T07:38:30;5.05;;;3.17;;
8094;SDS011;4090;49.270;8.696;2024-03-17T07:41:16;4.63;;;3.30;;
8094;SDS011;4090;49.270;8.696;2024-03-17T07:43:57;4.18;;;3.08;;
8094;SDS011;4090;49.270;8.696;2024-03-17T07:46:39;6.13;;;3.30;;
8094;SDS011;4090;49.270;8.696;2024-03-17T07:49:22;5.63;;;3.28;;
8094;SDS011;4090;49.270;8.696;2024-03-17T07:52:05;4.75;;;3.35;;
8094;SDS011;4090;49.270;8.696;2024-03-17T07:54:47;4.90;;;2.95;;
8094;SDS011;4090;49.270;8.696;2024-03-17T07:57:29;8.20;;;3.33;;
8094;SDS011;4090;49.270;8.696;2024-03-17T08:00:11;7.75;;;3.72;;
8094;SDS011;4090;49.270;8.696;2024-03-17T08:02:56;5.82;;;3.80;;
8094;SDS011;4090;49.270;8.696;2024-03-17T08:05:39;4.93;;;3.28;;
8094;SDS011;4090;49.270;8.696;2024-03-17T08:08:22;4.80;;;3.50;;
8094;SDS011;4090;49.270;8.696;2024-03-17T08:11:04;7.05;;;4.03;;
8094;SDS011;4090;49.270;8.696;2024-03-17T08:13:46;6.75;;;3.72;;
8094;SDS011;4090;49.270;8.696;2024-03-17T08:16:28;5.43;;;3.72;;
8094;SDS011;4090;49.270;8.696;2024-03-17T08:19:10;5.18;;;3.50;;
8094;SDS011;4090;49.270;8.696;2024-03-17T08:21:54;6.45;;;4.07;;
8094;SDS011;4090;49.270;8.696;2024-03-17T08:24:36;6.30;;;4.25;;
8094;SDS011;4090;49.270;8.696;2024-03-17T08:27:17;5.15;;;3.70;;
8094;SDS011;4090;49.270;8.696;2024-03-17T08:29:59;6.55;;;3.80;;
8094;SDS011;4090;49.270;8.696;2024-03-17T08:32:41;9.43;;;4.65;;
8094;SDS011;4090;49.270;8.696;2024-03-17T08:35:23;5.93;;;4.20;;
8094;SDS011;4090;49.270;8.696;2024-03-17T08:38:07;7.68;;;4.57;;
8094;SDS011;4090;49.270;8.696;2024-03-17T08:40:49;9.00;;;4.40;;
8094;SDS011;4090;49.270;8.696;2024-03-17T08:43:32;6.82;;;4.32;;
8094;SDS011;4090;49.270;8.696;2024-03-17T08:46:14;6.75;;;4.22;;
8094;SDS011;4090;49.270;8.696;2024-03-17T08:48:56;8.85;;;4.15;;
8094;SDS011;4090;49.270;8.696;2024-03-17T08:51:38;7.95;;;4.30;;
8094;SDS011;4090;49.270;8.696;2024-03-17T08:54:21;8.35;;;4.60;;
8094;SDS011;4090;49.270;8.696;2024-03-17T08:57:06;11.15;;;6.38;;
8094;SDS011;4090;49.270;8.696;2024-03-17T08:59:49;8.55;;;5.43;;
8094;SDS011;4090;49.270;8.696;2024-03-17T09:02:33;8.63;;;5.25;;
8094;SDS011;4090;49.270;8.696;2024-03-17T09:05:15;22.23;;;14.70;;
8094;SDS011;4090;49.270;8.696;2024-03-17T09:07:57;22.50;;;14.35;;
8094;SDS011;4090;49.270;8.696;2024-03-17T09:10:40;14.93;;;10.00;;
8094;SDS011;4090;49.270;8.696;2024-03-17T09:13:23;9.07;;;5.90;;
8094;SDS011;4090;49.270;8.696;2024-03-17T09:16:06;7.47;;;4.82;;
8094;SDS011;4090;49.270;8.696;2024-03-17T09:18:51;8.13;;;4.35;;
8094;SDS011;4090;49.270;8.696;2024-03-17T09:21:33;7.35;;;4.70;;
8094;SDS011;4090;49.270;8.696;2024-03-17T09:24:15;11.55;;;4.95;;
8094;SDS011;4090;49.270;8.696;2024-03-17T09:26:58;12.05;;;5.50;;
8094;SDS011;4090;49.270;8.696;2024-03-17T09:29:40;7.63;;;4.85;;
8094;SDS011;4090;49.270;8.696;2024-03-17T09:32:22;9.75;;;5.07;;
8094;SDS011;4090;49.270;8.696;2024-03-17T09:35:06;8.52;;;5.72;;
8094;SDS011;4090;49.270;8.696;2024-03-17T09:37:49;10.20;;;5.32;;
8094;SDS011;4090;49.270;8.696;2024-03-17T09:40:30;8.40;;;5.18;;
8094;SDS011;4090;49.270;8.696;2024-03-17T09:43:14;10.98;;;6.00;;
8094;SDS011;4090;49.270;8.696;2024-03-17T09:45:55;9.02;;;5.93;;
8094;SDS011;4090;49.270;8.696;2024-03-17T09:48:38;9.15;;;5.35;;
8094;SDS011;4090;49.270;8.696;2024-03-17T09:51:21;10.07;;;5.57;;
8094;SDS011;4090;49.270;8.696;2024-03-17T09:54:05;9.50;;;5.82;;
8094;SDS011;4090;49.270;8.696;2024-03-17T09:56:58;11.00;;;5.40;;
8094;SDS011;4090;49.270;8.696;2024-03-17T09:59:41;9.80;;;5.20;;
8094;SDS011;4090;49.270;8.696;2024-03-17T10:02:23;9.77;;;5.22;;
8094;SDS011;4090;49.270;8.696;2024-03-17T10:05:05;10.13;;;5.40;;
8094;SDS011;4090;49.270;8.696;2024-03-17T10:08:00;8.57;;;5.03;;
8094;SDS011;4090;49.270;8.696;2024-03-17T10:10:43;9.00;;;5.30;;
8094;SDS011;4090;49.270;8.696;2024-03-17T10:13:26;8.35;;;5.60;;
8094;SDS011;4090;49.270;8.696;2024-03-17T10:16:23;9.13;;;5.40;;
8094;SDS011;4090;49.270;8.696;2024-03-17T10:19:07;8.57;;;5.00;;
8094;SDS011;4090;49.270;8.696;2024-03-17T10:21:57;7.53;;;5.38;;
8094;SDS011;4090;49.270;8.696;2024-03-17T10:24:41;10.07;;;5.53;;
8094;SDS011;4090;49.270;8.696;2024-03-17T10:27:23;8.65;;;5.53;;
8094;SDS011;4090;49.270;8.696;2024-03-17T10:30:06;7.97;;;5.10;;
8094;SDS011;4090;49.270;8.696;2024-03-17T10:33:01;8.30;;;5.53;;
8094;SDS011;4090;49.270;8.696;2024-03-17T10:35:43;8.65;;;5.18;;
8094;SDS011;4090;49.270;8.696;2024-03-17T10:38:25;8.32;;;4.82;;
8094;SDS011;4090;49.270;8.696;2024-03-17T10:41:08;7.07;;;5.15;;
8094;SDS011;4090;49.270;8.696;2024-03-17T10:43:52;7.68;;;5.30;;
8094;SDS011;4090;49.270;8.696;2024-03-17T10:46:34;8.43;;;4.97;;
8094;SDS011;4090;49.270;8.696;2024-03-17T10:49:18;7.88;;;5.30;;
8094;SDS011;4090;49.270;8.696;2024-03-17T10:52:03;8.45;;;5.20;;
8094;SDS011;4090;49.270;8.696;2024-03-17T10:54:47;9.38;;;5.38;;
8094;SDS011;4090;49.270;8.696;2024-03-17T10:57:31;8.88;;;5.07;;
8094;SDS011;4090;49.270;8.696;2024-03-17T11:00:18;9.73;;;5.15;;
8094;SDS011;4090;49.270;8.696;2024-03-17T11:03:02;9.95;;;5.32;;
8094;SDS011;4090;49.270;8.696;2024-03-17T11:05:48;8.32;;;4.75;;
8094;SDS011;4090;49.270;8.696;2024-03-17T11:08:31;7.68;;;5.07;;
8094;SDS011;4090;49.270;8.696;2024-03-17T11:11:14;7.47;;;4.80;;
8094;SDS011;4090;49.270;8.696;2024-03-17T11:14:16;9.02;;;5.07;;
8094;SDS011;4090;49.270;8.696;2024-03-17T11:16:59;6.93;;;4.28;;
8094;SDS011;4090;49.270;8.696;2024-03-17T11:20:08;8.35;;;4.55;;
8094;SDS011;4090;49.270;8.696;2024-03-17T11:22:57;7.47;;;4.18;;
8094;SDS011;4090;49.270;8.696;2024-03-17T11:25:39;7.70;;;4.38;;
8094;SDS011;4090;49.270;8.696;2024-03-17T11:31:36;7.07;;;3.60;;
8094;SDS011;4090;49.270;8.696;2024-03-17T11:34:26;5.03;;;3.38;;
8094;SDS011;4090;49.270;8.696;2024-03-17T11:40:25;6.13;;;3.58;;
8094;SDS011;4090;49.270;8.696;2024-03-17T11:43:06;5.18;;;3.30;;
8094;SDS011;4090;49.270;8.696;2024-03-17T11:45:58;4.07;;;3.20;;
8094;SDS011;4090;49.270;8.696;2024-03-17T11:48:39;4.32;;;2.80;;
8094;SDS011;4090;49.270;8.696;2024-03-17T11:51:21;5.28;;;3.60;;
8094;SDS011;4090;49.270;8.696;2024-03-17T11:54:03;5.30;;;3.30;;
8094;SDS011;4090;49.270;8.696;2024-03-17T11:56:47;6.35;;;3.72;;
8094;SDS011;4090;49.270;8.696;2024-03-17T11:59:29;4.65;;;3.13;;
8094;SDS011;4090;49.270;8.696;2024-03-17T12:02:14;4.90;;;3.30;;
8094;SDS011;4090;49.270;8.696;2024-03-17T12:04:59;4.85;;;2.92;;
8094;SDS011;4090;49.270;8.696;2024-03-17T12:07:42;5.82;;;3.45;;
8094;SDS011;4090;49.270;8.696;2024-03-17T12:10:23;3.65;;;3.28;;
8094;SDS011;4090;49.270;8.696;2024-03-17T12:13:11;5.20;;;3.30;;
8094;SDS011;4090;49.270;8.696;2024-03-17T12:18:53;5.57;;;3.20;;
8094;SDS011;4090;49.270;8.696;2024-03-17T12:21:34;3.25;;;2.88;;
8094;SDS011;4090;49.270;8.696;2024-03-17T12:24:17;4.40;;;3.08;;
8094;SDS011;4090;49.270;8.696;2024-03-17T12:26:59;6.97;;;3.70;;
8094;SDS011;4090;49.270;8.696;2024-03-17T12:29:44;6.35;;;3.45;;
8094;SDS011;4090;49.270;8.696;2024-03-17T12:32:27;4.85;;;3.47;;
8094;SDS011;4090;49.270;8.696;2024-03-17T12:35:12;4.80;;;3.28;;
8094;SDS011;4090;49.270;8.696;2024-03-17T12:37:56;5.18;;;3.30;;
8094;SDS011;4090;49.270;8.696;2024-03-17T12:40:38;3.85;;;3.40;;
8094;SDS011;4090;49.270;8.696;2024-03-17T12:43:20;3.63;;;2.95;;
8094;SDS011;4090;49.270;8.696;2024-03-17T12:46:04;4.85;;;3.20;;
8094;SDS011;4090;49.270;8.696;2024-03-17T12:48:46;4.30;;;2.95;;
8094;SDS011;4090;49.270;8.696;2024-03-17T12:51:27;5.57;;;2.83;;
8094;SDS011;4090;49.270;8.696;2024-03-17T12:54:12;6.45;;;2.90;;
8094;SDS011;4090;49.270;8.696;2024-03-17T12:57:03;4.75;;;3.45;;
8094;SDS011;4090;49.270;8.696;2024-03-17T13:00:16;4.68;;;2.95;;
8094;SDS011;4090;49.270;8.696;2024-03-17T13:03:23;5.55;;;3.03;;
8094;SDS011;4090;49.270;8.696;2024-03-17T13:06:06;4.10;;;2.90;;
8094;SDS011;4090;49.270;8.696;2024-03-17T13:08:50;4.30;;;2.70;;
8094;SDS011;4090;49.270;8.696;2024-03-17T13:11:32;4.25;;;2.75;;
8094;SDS011;4090;49.270;8.696;2024-03-17T13:14:14;5.47;;;3.03;;
8094;SDS011;4090;49.270;8.696;2024-03-17T13:16:57;5.32;;;3.10;;
8094;SDS011;4090;49.270;8.696;2024-03-17T13:19:40;4.22;;;2.80;;
8094;SDS011;4090;49.270;8.696;2024-03-17T13:22:25;5.80;;;3.45;;
8094;SDS011;4090;49.270;8.696;2024-03-17T13:25:12;4.20;;;2.75;;
8094;SDS011;4090;49.270;8.696;2024-03-17T13:27:56;4.25;;;2.58;;
8094;SDS011;4090;49.270;8.696;2024-03-17T13:30:38;6.30;;;2.90;;
8094;SDS011;4090;49.270;8.696;2024-03-17T13:33:20;5.00;;;2.50;;
8094;SDS011;4090;49.270;8.696;2024-03-17T13:36:03;5.50;;;2.90;;
8094;SDS011;4090;49.270;8.696;2024-03-17T13:38:47;4.63;;;3.05;;
8094;SDS011;4090;49.270;8.696;2024-03-17T13:41:33;6.90;;;3.47;;
8094;SDS011;4090;49.270;8.696;2024-03-17T13:44:15;2.78;;;2.45;;
8094;SDS011;4090;49.270;8.696;2024-03-17T13:46:57;3.65;;;2.92;;
8094;SDS011;4090;49.270;8.696;2024-03-17T13:49:41;4.18;;;2.92;;
8094;SDS011;4090;49.270;8.696;2024-03-17T13:52:25;5.50;;;3.00;;
8094;SDS011;4090;49.270;8.696;2024-03-17T13:55:08;4.55;;;2.70;;
8094;SDS011;4090;49.270;8.696;2024-03-17T13:57:55;3.97;;;2.50;;
8094;SDS011;4090;49.270;8.696;2024-03-17T14:00:39;5.18;;;2.83;;
8094;SDS011;4090;49.270;8.696;2024-03-17T14:03:22;4.82;;;2.78;;
8094;SDS011;4090;49.270;8.696;2024-03-17T14:06:04;5.20;;;2.67;;
8094;SDS011;4090;49.270;8.696;2024-03-17T14:08:50;3.60;;;2.38;;
8094;SDS011;4090;49.270;8.696;2024-03-17T14:11:32;4.45;;;2.45;;
8094;SDS011;4090;49.270;8.696;2024-03-17T14:14:14;3.85;;;2.30;;
8094;SDS011;4090;49.270;8.696;2024-03-17T14:16:56;6.78;;;2.58;;
8094;SDS011;4090;49.270;8.696;2024-03-17T14:19:37;3.63;;;2.40;;
8094;SDS011;4090;49.270;8.696;2024-03-17T14:22:19;5.03;;;2.70;;
8094;SDS011;4090;49.270;8.696;2024-03-17T14:25:02;4.40;;;2.60;;
8094;SDS011;4090;49.270;8.696;2024-03-17T14:27:46;4.60;;;2.35;;
8094;SDS011;4090;49.270;8.696;2024-03-17T14:30:28;3.28;;;2.20;;
8094;SDS011;4090;49.270;8.696;2024-03-17T14:33:10;4.10;;;2.53;;
8094;SDS011;4090;49.270;8.696;2024-03-17T14:35:55;4.72;;;2.38;;
8094;SDS011;4090;49.270;8.696;2024-03-17T14:38:37;4.63;;;2.38;;
8094;SDS011;4090;49.270;8.696;2024-03-17T14:41:20;3.38;;;2.40;;
8094;SDS011;4090;49.270;8.696;2024-03-17T14:44:02;3.13;;;2.55;;
8094;SDS011;4090;49.270;8.696;2024-03-17T14:46:45;3.83;;;2.50;;
8094;SDS011;4090;49.270;8.696;2024-03-17T14:49:27;2.90;;;2.30;;
8094;SDS011;4090;49.270;8.696;2024-03-17T14:52:11;3.50;;;2.30;;
8094;SDS011;4090;49.270;8.696;2024-03-17T14:54:53;4.97;;;2.47;;
8094;SDS011;4090;49.270;8.696;2024-03-17T14:57:38;4.13;;;2.42;;
8094;SDS011;4090;49.270;8.696;2024-03-17T15:00:20;5.20;;;2.33;;
8094;SDS011;4090;49.270;8.696;2024-03-17T15:03:04;2.80;;;2.20;;
8094;SDS011;4090;49.270;8.696;2024-03-17T15:05:48;4.20;;;3.03;;
8094;SDS011;4090;49.270;8.696;2024-03-17T15:08:32;4.28;;;2.72;;
8094;SDS011;4090;49.270;8.696;2024-03-17T15:11:13;3.13;;;2.63;;
8094;SDS011;4090;49.270;8.696;2024-03-17T15:13:57;4.03;;;2.50;;
8094;SDS011;4090;49.270;8.696;2024-03-17T15:16:39;2.20;;;1.98;;
8094;SDS011;4090;49.270;8.696;2024-03-17T15:19:21;6.57;;;2.83;;
8094;SDS011;4090;49.270;8.696;2024-03-17T15:22:03;4.18;;;2.30;;
8094;SDS011;4090;49.270;8.696;2024-03-17T15:24:44;2.30;;;2.10;;
8094;SDS011;4090;49.270;8.696;2024-03-17T15:27:26;5.43;;;2.80;;
8094;SDS011;4090;49.270;8.696;2024-03-17T15:30:12;5.10;;;2.45;;
8094;SDS011;4090;49.270;8.696;2024-03-17T15:32:58;2.97;;;2.20;;
8094;SDS011;4090;49.270;8.696;2024-03-17T15:35:40;3.75;;;2.20;;
8094;SDS011;4090;49.270;8.696;2024-03-17T15:38:23;3.83;;;2.22;;
8094;SDS011;4090;49.270;8.696;2024-03-17T15:41:06;4.28;;;2.33;;
8094;SDS011;4090;49.270;8.696;2024-03-17T15:43:50;2.83;;;2.40;;
8094;SDS011;4090;49.270;8.696;2024-03-17T15:46:33;4.78;;;2.90;;
8094;SDS011;4090;49.270;8.696;2024-03-17T15:49:15;3.90;;;2.83;;
8094;SDS011;4090;49.270;8.696;2024-03-17T15:51:57;5.45;;;3.08;;
8094;SDS011;4090;49.270;8.696;2024-03-17T15:54:39;5.72;;;3.03;;
8094;SDS011;4090;49.270;8.696;2024-03-17T15:57:22;3.20;;;2.20;;
8094;SDS011;4090;49.270;8.696;2024-03-17T16:00:06;4.35;;;2.90;;
8094;SDS011;4090;49.270;8.696;2024-03-17T16:02:56;5.07;;;2.80;;
8094;SDS011;4090;49.270;8.696;2024-03-17T16:05:40;6.00;;;2.58;;
8094;SDS011;4090;49.270;8.696;2024-03-17T16:08:22;5.45;;;3.30;;
8094;SDS011;4090;49.270;8.696;2024-03-17T16:11:04;7.25;;;3.17;;
8094;SDS011;4090;49.270;8.696;2024-03-17T16:13:47;5.10;;;2.83;;
8094;SDS011;4090;49.270;8.696;2024-03-17T16:16:29;4.38;;;2.80;;
8094;SDS011;4090;49.270;8.696;2024-03-17T16:19:14;4.28;;;2.60;;
8094;SDS011;4090;49.270;8.696;2024-03-17T16:21:57;6.90;;;2.70;;
8094;SDS011;4090;49.270;8.696;2024-03-17T16:24:39;2.78;;;2.22;;
8094;SDS011;4090;49.270;8.696;2024-03-17T16:27:23;4.93;;;2.72;;
8094;SDS011;4090;49.270;8.696;2024-03-17T16:30:06;5.95;;;3.10;;
8094;SDS011;4090;49.270;8.696;2024-03-17T16:32:49;6.82;;;3.10;;
8094;SDS011;4090;49.270;8.696;2024-03-17T16:35:33;5.10;;;3.20;;
8094;SDS011;4090;49.270;8.696;2024-03-17T16:38:14;5.45;;;2.72;;
8094;SDS011;4090;49.270;8.696;2024-03-17T16:40:56;5.60;;;2.70;;
8094;SDS011;4090;49.270;8.696;2024-03-17T16:43:42;5.95;;;3.00;;
8094;SDS011;4090;49.270;8.696;2024-03-17T16:46:57;4.38;;;2.80;;
8094;SDS011;4090;49.270;8.696;2024-03-17T16:50:05;3.70;;;2.65;;
8094;SDS011;4090;49.270;8.696;2024-03-17T16:52:51;3.42;;;2.30;;
8094;SDS011;4090;49.270;8.696;2024-03-17T16:55:34;5.00;;;2.17;;
8094;SDS011;4090;49.270;8.696;2024-03-17T16:58:15;3.13;;;2.20;;
8094;SDS011;4090;49.270;8.696;2024-03-17T17:00:57;3.72;;;2.55;;
8094;SDS011;4090;49.270;8.696;2024-03-17T17:03:39;3.20;;;2.42;;